Česky Dansk Deutsch English Español Suomi Français Magyar Italiano Nederlands norsk Polski Português svenska Türkçe

 

Het Weer

Poprad / Tatry (Slowakije)

04:00, 23 augustus 2016 (GMT)

NWNNE
WE
SWSSE
Home            
Poprad / Tatry Kosice Kosice, Barca Lucenec Sliac Sliac Miskolc Krakow Dolny Hricov Prievidza Kamenica Nad Cirochou Uzhhorod Katowice Ostrava / Mosnov Rzeszow-Jasionka Nyiregyhaza / Napkor Nitra Piestany Piestany Budapest Met Center Budapest / Ferihegy Holesov Debrecen

Om een weerknop op uw website of weblog te plaatsen, copieer onderstaande code en plak die in uw pagina. In het eerste vakje staat HTML-code, in het tweede vakje UBB-code.


Add to Google

Details

Wind speed:2 bf, 6 kn, 3.1 m/s, 6.9 miles/h, 11.1 km/h
Wind direction:W, 270°
Visibility:Greater than 10000 m, 10 km, 32800 ft, 6.2 miles
Clouds:Ein wenig bewölkt at 6000 ft, 1829 m
Durchbrochene Bewölkung at 6600 ft, 2012 m
Temperature:12°C, 54°F
Dew-point:10°C, 50°F
Atmospheric pressure:1026 hPa, 769.6 mmHg, 30.30 inHg, 1.013 atm
Relative humidity:87.6 %
METAR:LZTT 230400Z 27006KT 9999 FEW060 BKN066 12/10 Q1026

Snelkoppelingen

Actuele weersinformatie van de hele wereld. Voeg locaties toe met het plus (+) symbool. Deze snelkoppelingen kunnen worden toegevoegd aan Google.

Lid van de Technetium groep

website free tracking
StatCounter NetStat W3C Validator

04-10-2022 06:35:45
astro.technetium.be money.technetium.be phote.technetium.be tafeltennistafel.technetium.be www.ligfiets.net